sensor_id;sensor_type;location;lat;lon;timestamp;P1;durP1;ratioP1;P2;durP2;ratioP2
21905;SDS011;11117;48.644;9.006;2022-11-15T00:00:29;8.33;;;4.67;;
21905;SDS011;11117;48.644;9.006;2022-11-15T00:02:55;8.20;;;4.30;;
21905;SDS011;11117;48.644;9.006;2022-11-15T00:05:20;9.47;;;3.90;;
21905;SDS011;11117;48.644;9.006;2022-11-15T00:07:46;8.17;;;4.13;;
21905;SDS011;11117;48.644;9.006;2022-11-15T00:10:12;6.83;;;4.40;;
21905;SDS011;11117;48.644;9.006;2022-11-15T00:12:37;8.60;;;5.27;;
21905;SDS011;11117;48.644;9.006;2022-11-15T00:15:03;10.50;;;5.83;;
21905;SDS011;11117;48.644;9.006;2022-11-15T00:17:32;12.43;;;5.70;;
21905;SDS011;11117;48.644;9.006;2022-11-15T00:19:58;8.47;;;5.10;;
21905;SDS011;11117;48.644;9.006;2022-11-15T00:22:23;8.40;;;5.00;;
21905;SDS011;11117;48.644;9.006;2022-11-15T00:24:49;13.87;;;5.10;;
21905;SDS011;11117;48.644;9.006;2022-11-15T00:27:14;10.20;;;4.77;;
21905;SDS011;11117;48.644;9.006;2022-11-15T00:29:40;9.20;;;4.50;;
21905;SDS011;11117;48.644;9.006;2022-11-15T00:32:06;7.10;;;4.33;;
21905;SDS011;11117;48.644;9.006;2022-11-15T00:34:31;6.20;;;3.93;;
21905;SDS011;11117;48.644;9.006;2022-11-15T00:36:57;8.63;;;4.80;;
21905;SDS011;11117;48.644;9.006;2022-11-15T00:39:22;8.53;;;4.23;;
21905;SDS011;11117;48.644;9.006;2022-11-15T00:41:48;7.83;;;4.33;;
21905;SDS011;11117;48.644;9.006;2022-11-15T00:44:13;7.57;;;4.07;;
21905;SDS011;11117;48.644;9.006;2022-11-15T00:46:39;7.83;;;4.17;;
21905;SDS011;11117;48.644;9.006;2022-11-15T00:49:04;6.37;;;4.10;;
21905;SDS011;11117;48.644;9.006;2022-11-15T00:51:30;9.53;;;4.37;;
21905;SDS011;11117;48.644;9.006;2022-11-15T00:53:55;6.30;;;4.00;;
21905;SDS011;11117;48.644;9.006;2022-11-15T00:56:21;10.40;;;4.30;;
21905;SDS011;11117;48.644;9.006;2022-11-15T00:58:47;7.10;;;4.13;;
21905;SDS011;11117;48.644;9.006;2022-11-15T01:01:13;7.00;;;4.43;;
21905;SDS011;11117;48.644;9.006;2022-11-15T01:03:40;7.20;;;4.17;;
21905;SDS011;11117;48.644;9.006;2022-11-15T01:06:06;7.77;;;4.60;;
21905;SDS011;11117;48.644;9.006;2022-11-15T01:08:32;6.07;;;3.73;;
21905;SDS011;11117;48.644;9.006;2022-11-15T01:11:02;9.47;;;4.40;;
21905;SDS011;11117;48.644;9.006;2022-11-15T01:13:30;8.30;;;4.00;;
21905;SDS011;11117;48.644;9.006;2022-11-15T01:15:57;8.90;;;4.47;;
21905;SDS011;11117;48.644;9.006;2022-11-15T01:18:22;6.67;;;4.10;;
21905;SDS011;11117;48.644;9.006;2022-11-15T01:20:48;5.83;;;3.93;;
21905;SDS011;11117;48.644;9.006;2022-11-15T01:23:14;6.60;;;4.13;;
21905;SDS011;11117;48.644;9.006;2022-11-15T01:25:40;7.27;;;4.03;;
21905;SDS011;11117;48.644;9.006;2022-11-15T01:28:05;7.63;;;4.33;;
21905;SDS011;11117;48.644;9.006;2022-11-15T01:30:31;6.43;;;4.20;;
21905;SDS011;11117;48.644;9.006;2022-11-15T01:32:56;6.83;;;4.23;;
21905;SDS011;11117;48.644;9.006;2022-11-15T01:35:23;7.40;;;4.37;;
21905;SDS011;11117;48.644;9.006;2022-11-15T01:37:48;7.87;;;4.37;;
21905;SDS011;11117;48.644;9.006;2022-11-15T01:40:14;7.40;;;3.93;;
21905;SDS011;11117;48.644;9.006;2022-11-15T01:42:40;5.37;;;4.00;;
21905;SDS011;11117;48.644;9.006;2022-11-15T01:45:05;7.47;;;4.00;;
21905;SDS011;11117;48.644;9.006;2022-11-15T01:47:38;6.83;;;4.03;;
21905;SDS011;11117;48.644;9.006;2022-11-15T01:50:10;6.37;;;3.87;;
21905;SDS011;11117;48.644;9.006;2022-11-15T01:52:40;6.60;;;3.77;;
21905;SDS011;11117;48.644;9.006;2022-11-15T01:55:25;7.53;;;3.70;;
21905;SDS011;11117;48.644;9.006;2022-11-15T01:57:53;6.70;;;3.80;;
21905;SDS011;11117;48.644;9.006;2022-11-15T02:00:23;7.03;;;3.87;;
21905;SDS011;11117;48.644;9.006;2022-11-15T02:02:51;6.47;;;3.60;;
21905;SDS011;11117;48.644;9.006;2022-11-15T02:05:16;10.70;;;3.97;;
21905;SDS011;11117;48.644;9.006;2022-11-15T02:07:42;9.33;;;3.50;;
21905;SDS011;11117;48.644;9.006;2022-11-15T02:10:09;8.50;;;4.20;;
21905;SDS011;11117;48.644;9.006;2022-11-15T02:12:37;5.30;;;3.50;;
21905;SDS011;11117;48.644;9.006;2022-11-15T02:15:03;6.07;;;3.90;;
21905;SDS011;11117;48.644;9.006;2022-11-15T02:17:52;6.87;;;3.83;;
21905;SDS011;11117;48.644;9.006;2022-11-15T02:20:39;6.50;;;3.70;;
21905;SDS011;11117;48.644;9.006;2022-11-15T02:33:44;7.37;;;3.77;;
21905;SDS011;11117;48.644;9.006;2022-11-15T02:36:28;8.40;;;3.77;;
21905;SDS011;11117;48.644;9.006;2022-11-15T02:39:20;5.03;;;3.40;;
21905;SDS011;11117;48.644;9.006;2022-11-15T02:42:00;7.73;;;3.40;;
21905;SDS011;11117;48.644;9.006;2022-11-15T02:44:33;5.67;;;3.40;;
21905;SDS011;11117;48.644;9.006;2022-11-15T02:47:05;6.33;;;3.10;;
21905;SDS011;11117;48.644;9.006;2022-11-15T02:49:33;8.50;;;3.47;;
21905;SDS011;11117;48.644;9.006;2022-11-15T02:51:59;7.17;;;3.07;;
21905;SDS011;11117;48.644;9.006;2022-11-15T02:54:26;6.03;;;3.07;;
21905;SDS011;11117;48.644;9.006;2022-11-15T02:56:56;5.80;;;3.70;;
21905;SDS011;11117;48.644;9.006;2022-11-15T03:07:18;4.93;;;3.13;;
21905;SDS011;11117;48.644;9.006;2022-11-15T03:10:00;4.30;;;3.20;;
21905;SDS011;11117;48.644;9.006;2022-11-15T03:15:21;5.93;;;3.03;;
21905;SDS011;11117;48.644;9.006;2022-11-15T03:18:07;7.63;;;3.50;;
21905;SDS011;11117;48.644;9.006;2022-11-15T03:20:40;6.07;;;3.63;;
21905;SDS011;11117;48.644;9.006;2022-11-15T03:23:10;4.67;;;3.20;;
21905;SDS011;11117;48.644;9.006;2022-11-15T03:25:38;7.10;;;3.87;;
21905;SDS011;11117;48.644;9.006;2022-11-15T03:28:06;8.13;;;3.40;;
21905;SDS011;11117;48.644;9.006;2022-11-15T03:30:37;11.67;;;3.40;;
21905;SDS011;11117;48.644;9.006;2022-11-15T03:33:05;5.83;;;3.33;;
21905;SDS011;11117;48.644;9.006;2022-11-15T03:35:34;9.23;;;3.40;;
21905;SDS011;11117;48.644;9.006;2022-11-15T03:38:06;4.40;;;3.07;;
21905;SDS011;11117;48.644;9.006;2022-11-15T03:46:22;5.00;;;3.40;;
21905;SDS011;11117;48.644;9.006;2022-11-15T03:48:59;7.90;;;3.20;;
21905;SDS011;11117;48.644;9.006;2022-11-15T03:51:34;6.23;;;3.60;;
21905;SDS011;11117;48.644;9.006;2022-11-15T03:54:02;5.70;;;3.50;;
21905;SDS011;11117;48.644;9.006;2022-11-15T03:56:30;6.03;;;3.60;;
21905;SDS011;11117;48.644;9.006;2022-11-15T03:58:56;7.57;;;3.67;;
21905;SDS011;11117;48.644;9.006;2022-11-15T04:01:22;5.23;;;3.20;;
21905;SDS011;11117;48.644;9.006;2022-11-15T04:03:47;6.40;;;3.50;;
21905;SDS011;11117;48.644;9.006;2022-11-15T04:06:16;7.60;;;3.87;;
21905;SDS011;11117;48.644;9.006;2022-11-15T04:08:41;6.20;;;3.50;;
21905;SDS011;11117;48.644;9.006;2022-11-15T04:11:07;7.10;;;3.60;;
21905;SDS011;11117;48.644;9.006;2022-11-15T04:13:32;9.73;;;3.70;;
21905;SDS011;11117;48.644;9.006;2022-11-15T04:15:58;5.40;;;3.50;;
21905;SDS011;11117;48.644;9.006;2022-11-15T04:18:23;8.80;;;3.20;;
21905;SDS011;11117;48.644;9.006;2022-11-15T04:20:49;7.17;;;3.40;;
21905;SDS011;11117;48.644;9.006;2022-11-15T04:23:18;6.77;;;3.40;;
21905;SDS011;11117;48.644;9.006;2022-11-15T04:25:46;5.60;;;3.00;;
21905;SDS011;11117;48.644;9.006;2022-11-15T04:28:14;6.87;;;3.90;;
21905;SDS011;11117;48.644;9.006;2022-11-15T04:30:40;7.53;;;3.80;;
21905;SDS011;11117;48.644;9.006;2022-11-15T04:33:05;5.00;;;3.33;;
21905;SDS011;11117;48.644;9.006;2022-11-15T04:35:31;5.70;;;2.97;;
21905;SDS011;11117;48.644;9.006;2022-11-15T04:37:57;7.50;;;3.13;;
21905;SDS011;11117;48.644;9.006;2022-11-15T04:40:23;8.03;;;3.63;;
21905;SDS011;11117;48.644;9.006;2022-11-15T04:42:48;6.70;;;3.53;;
21905;SDS011;11117;48.644;9.006;2022-11-15T04:45:14;6.30;;;3.53;;
21905;SDS011;11117;48.644;9.006;2022-11-15T04:47:40;8.20;;;3.80;;
21905;SDS011;11117;48.644;9.006;2022-11-15T04:50:08;7.47;;;3.43;;
21905;SDS011;11117;48.644;9.006;2022-11-15T04:52:33;6.67;;;3.23;;
21905;SDS011;11117;48.644;9.006;2022-11-15T04:54:59;9.90;;;3.77;;
21905;SDS011;11117;48.644;9.006;2022-11-15T04:57:24;7.33;;;3.70;;
21905;SDS011;11117;48.644;9.006;2022-11-15T04:59:50;8.37;;;4.00;;
21905;SDS011;11117;48.644;9.006;2022-11-15T05:02:15;8.70;;;4.40;;
21905;SDS011;11117;48.644;9.006;2022-11-15T05:04:41;8.13;;;4.40;;
21905;SDS011;11117;48.644;9.006;2022-11-15T05:07:06;9.43;;;4.37;;
21905;SDS011;11117;48.644;9.006;2022-11-15T05:09:32;7.43;;;3.93;;
21905;SDS011;11117;48.644;9.006;2022-11-15T05:11:57;9.17;;;4.20;;
21905;SDS011;11117;48.644;9.006;2022-11-15T05:14:23;9.63;;;4.17;;
21905;SDS011;11117;48.644;9.006;2022-11-15T05:16:48;5.03;;;3.60;;
21905;SDS011;11117;48.644;9.006;2022-11-15T05:19:14;6.57;;;3.30;;
21905;SDS011;11117;48.644;9.006;2022-11-15T05:21:39;16.47;;;4.33;;
21905;SDS011;11117;48.644;9.006;2022-11-15T05:24:05;13.33;;;4.30;;
21905;SDS011;11117;48.644;9.006;2022-11-15T05:26:31;13.27;;;4.30;;
21905;SDS011;11117;48.644;9.006;2022-11-15T05:28:58;6.37;;;3.80;;
21905;SDS011;11117;48.644;9.006;2022-11-15T05:31:24;12.03;;;4.30;;
21905;SDS011;11117;48.644;9.006;2022-11-15T05:33:51;8.90;;;4.78;;
21905;SDS011;11117;48.644;9.006;2022-11-15T05:39:14;8.40;;;4.30;;
21905;SDS011;11117;48.644;9.006;2022-11-15T05:41:42;7.13;;;4.30;;
21905;SDS011;11117;48.644;9.006;2022-11-15T05:44:11;17.40;;;8.40;;
21905;SDS011;11117;48.644;9.006;2022-11-15T05:46:39;8.73;;;5.00;;
21905;SDS011;11117;48.644;9.006;2022-11-15T05:49:07;7.27;;;4.70;;
21905;SDS011;11117;48.644;9.006;2022-11-15T05:51:36;5.17;;;3.60;;
21905;SDS011;11117;48.644;9.006;2022-11-15T05:54:02;8.37;;;3.77;;
21905;SDS011;11117;48.644;9.006;2022-11-15T05:56:28;7.67;;;4.17;;
21905;SDS011;11117;48.644;9.006;2022-11-15T05:58:54;8.03;;;4.30;;
21905;SDS011;11117;48.644;9.006;2022-11-15T06:01:21;9.03;;;4.13;;
21905;SDS011;11117;48.644;9.006;2022-11-15T06:03:48;5.73;;;3.70;;
21905;SDS011;11117;48.644;9.006;2022-11-15T06:06:13;5.90;;;3.63;;
21905;SDS011;11117;48.644;9.006;2022-11-15T06:08:39;11.80;;;3.63;;
21905;SDS011;11117;48.644;9.006;2022-11-15T06:11:05;9.30;;;5.23;;
21905;SDS011;11117;48.644;9.006;2022-11-15T06:13:31;10.30;;;5.40;;
21905;SDS011;11117;48.644;9.006;2022-11-15T06:15:57;10.13;;;5.20;;
21905;SDS011;11117;48.644;9.006;2022-11-15T06:18:23;11.00;;;5.57;;
21905;SDS011;11117;48.644;9.006;2022-11-15T06:20:49;12.57;;;8.40;;
21905;SDS011;11117;48.644;9.006;2022-11-15T06:23:14;18.77;;;9.90;;
21905;SDS011;11117;48.644;9.006;2022-11-15T06:25:40;17.93;;;9.73;;
21905;SDS011;11117;48.644;9.006;2022-11-15T06:28:06;20.30;;;10.63;;
21905;SDS011;11117;48.644;9.006;2022-11-15T06:30:31;19.43;;;11.00;;
21905;SDS011;11117;48.644;9.006;2022-11-15T06:33:04;19.00;;;12.13;;
21905;SDS011;11117;48.644;9.006;2022-11-15T06:35:30;17.67;;;11.33;;
21905;SDS011;11117;48.644;9.006;2022-11-15T06:38:02;19.07;;;10.73;;
21905;SDS011;11117;48.644;9.006;2022-11-15T06:40:29;22.47;;;11.80;;
21905;SDS011;11117;48.644;9.006;2022-11-15T06:42:59;20.40;;;11.33;;
21905;SDS011;11117;48.644;9.006;2022-11-15T06:45:25;20.77;;;9.23;;
21905;SDS011;11117;48.644;9.006;2022-11-15T06:47:50;17.73;;;10.03;;
21905;SDS011;11117;48.644;9.006;2022-11-15T06:50:16;18.03;;;7.30;;
21905;SDS011;11117;48.644;9.006;2022-11-15T06:52:42;15.30;;;8.07;;
21905;SDS011;11117;48.644;9.006;2022-11-15T06:55:07;15.20;;;8.20;;
21905;SDS011;11117;48.644;9.006;2022-11-15T06:57:33;14.40;;;7.60;;
21905;SDS011;11117;48.644;9.006;2022-11-15T06:59:59;12.37;;;6.67;;
21905;SDS011;11117;48.644;9.006;2022-11-15T07:02:25;11.37;;;6.90;;
21905;SDS011;11117;48.644;9.006;2022-11-15T07:04:50;14.13;;;8.23;;
21905;SDS011;11117;48.644;9.006;2022-11-15T07:07:16;29.57;;;15.27;;
21905;SDS011;11117;48.644;9.006;2022-11-15T07:09:41;24.00;;;13.27;;
21905;SDS011;11117;48.644;9.006;2022-11-15T07:12:07;19.23;;;10.57;;
21905;SDS011;11117;48.644;9.006;2022-11-15T07:14:32;19.80;;;8.07;;
21905;SDS011;11117;48.644;9.006;2022-11-15T07:16:58;21.73;;;9.60;;
21905;SDS011;11117;48.644;9.006;2022-11-15T07:19:23;12.60;;;7.40;;
21905;SDS011;11117;48.644;9.006;2022-11-15T07:21:49;13.27;;;7.63;;
21905;SDS011;11117;48.644;9.006;2022-11-15T07:24:14;11.87;;;8.73;;
21905;SDS011;11117;48.644;9.006;2022-11-15T07:26:40;14.23;;;8.77;;
21905;SDS011;11117;48.644;9.006;2022-11-15T07:29:05;14.17;;;6.47;;
21905;SDS011;11117;48.644;9.006;2022-11-15T07:31:31;8.40;;;5.60;;
21905;SDS011;11117;48.644;9.006;2022-11-15T07:33:56;10.37;;;5.00;;
21905;SDS011;11117;48.644;9.006;2022-11-15T07:36:22;12.00;;;5.80;;
21905;SDS011;11117;48.644;9.006;2022-11-15T07:38:47;16.23;;;6.67;;
21905;SDS011;11117;48.644;9.006;2022-11-15T07:41:13;13.63;;;6.60;;
21905;SDS011;11117;48.644;9.006;2022-11-15T07:43:38;7.53;;;5.63;;
21905;SDS011;11117;48.644;9.006;2022-11-15T07:46:05;10.00;;;5.60;;
21905;SDS011;11117;48.644;9.006;2022-11-15T07:48:31;10.93;;;5.40;;
21905;SDS011;11117;48.644;9.006;2022-11-15T07:50:57;11.87;;;6.07;;
21905;SDS011;11117;48.644;9.006;2022-11-15T07:53:22;9.80;;;5.67;;
21905;SDS011;11117;48.644;9.006;2022-11-15T07:55:48;13.53;;;5.73;;
21905;SDS011;11117;48.644;9.006;2022-11-15T07:58:13;11.40;;;5.63;;
21905;SDS011;11117;48.644;9.006;2022-11-15T08:00:39;10.50;;;5.50;;
21905;SDS011;11117;48.644;9.006;2022-11-15T08:03:07;10.87;;;5.53;;
21905;SDS011;11117;48.644;9.006;2022-11-15T08:05:34;7.97;;;4.80;;
21905;SDS011;11117;48.644;9.006;2022-11-15T08:08:01;8.03;;;4.70;;
21905;SDS011;11117;48.644;9.006;2022-11-15T08:10:27;10.53;;;5.30;;
21905;SDS011;11117;48.644;9.006;2022-11-15T08:13:03;9.73;;;4.90;;
21905;SDS011;11117;48.644;9.006;2022-11-15T08:15:31;7.13;;;4.60;;
21905;SDS011;11117;48.644;9.006;2022-11-15T08:17:58;12.90;;;5.17;;
21905;SDS011;11117;48.644;9.006;2022-11-15T08:20:25;12.33;;;4.90;;
21905;SDS011;11117;48.644;9.006;2022-11-15T08:22:52;11.60;;;4.93;;
21905;SDS011;11117;48.644;9.006;2022-11-15T08:25:17;10.27;;;4.30;;
21905;SDS011;11117;48.644;9.006;2022-11-15T08:27:43;8.40;;;4.60;;
21905;SDS011;11117;48.644;9.006;2022-11-15T08:30:09;8.17;;;4.47;;
21905;SDS011;11117;48.644;9.006;2022-11-15T08:32:35;8.67;;;4.40;;
21905;SDS011;11117;48.644;9.006;2022-11-15T08:35:01;10.07;;;4.27;;
21905;SDS011;11117;48.644;9.006;2022-11-15T08:37:26;7.20;;;4.20;;
21905;SDS011;11117;48.644;9.006;2022-11-15T08:39:52;9.07;;;4.37;;
21905;SDS011;11117;48.644;9.006;2022-11-15T08:42:17;9.83;;;4.03;;
21905;SDS011;11117;48.644;9.006;2022-11-15T08:44:43;7.57;;;3.20;;
21905;SDS011;11117;48.644;9.006;2022-11-15T08:47:10;6.30;;;3.00;;
21905;SDS011;11117;48.644;9.006;2022-11-15T08:49:36;7.23;;;2.97;;
21905;SDS011;11117;48.644;9.006;2022-11-15T08:52:02;3.93;;;2.87;;
21905;SDS011;11117;48.644;9.006;2022-11-15T08:54:28;3.13;;;2.33;;
21905;SDS011;11117;48.644;9.006;2022-11-15T08:56:53;5.30;;;3.03;;
21905;SDS011;11117;48.644;9.006;2022-11-15T08:59:19;9.87;;;3.67;;
21905;SDS011;11117;48.644;9.006;2022-11-15T09:01:44;6.53;;;4.23;;
21905;SDS011;11117;48.644;9.006;2022-11-15T09:04:10;8.50;;;4.33;;
21905;SDS011;11117;48.644;9.006;2022-11-15T09:06:35;9.30;;;4.00;;
21905;SDS011;11117;48.644;9.006;2022-11-15T09:09:01;5.17;;;3.50;;
21905;SDS011;11117;48.644;9.006;2022-11-15T09:11:27;5.43;;;3.50;;
21905;SDS011;11117;48.644;9.006;2022-11-15T09:13:53;6.47;;;2.80;;
21905;SDS011;11117;48.644;9.006;2022-11-15T09:16:18;5.33;;;2.73;;
21905;SDS011;11117;48.644;9.006;2022-11-15T09:18:44;6.73;;;3.07;;
21905;SDS011;11117;48.644;9.006;2022-11-15T09:21:09;5.90;;;2.80;;
21905;SDS011;11117;48.644;9.006;2022-11-15T09:23:35;5.77;;;2.90;;
21905;SDS011;11117;48.644;9.006;2022-11-15T09:26:01;4.10;;;3.07;;
21905;SDS011;11117;48.644;9.006;2022-11-15T09:28:29;4.17;;;2.80;;
21905;SDS011;11117;48.644;9.006;2022-11-15T09:30:56;5.43;;;2.97;;
21905;SDS011;11117;48.644;9.006;2022-11-15T09:33:23;6.40;;;2.90;;
21905;SDS011;11117;48.644;9.006;2022-11-15T09:35:48;7.10;;;3.03;;
21905;SDS011;11117;48.644;9.006;2022-11-15T09:38:14;4.83;;;3.20;;
21905;SDS011;11117;48.644;9.006;2022-11-15T09:40:39;5.90;;;3.40;;
21905;SDS011;11117;48.644;9.006;2022-11-15T09:51:12;8.23;;;3.83;;
21905;SDS011;11117;48.644;9.006;2022-11-15T09:53:55;5.43;;;3.50;;
21905;SDS011;11117;48.644;9.006;2022-11-15T09:56:30;4.87;;;3.17;;
21905;SDS011;11117;48.644;9.006;2022-11-15T10:01:48;5.87;;;3.60;;
21905;SDS011;11117;48.644;9.006;2022-11-15T10:04:37;7.33;;;3.67;;
21905;SDS011;11117;48.644;9.006;2022-11-15T10:12:21;6.03;;;2.40;;
21905;SDS011;11117;48.644;9.006;2022-11-15T10:14:47;4.07;;;2.50;;
21905;SDS011;11117;48.644;9.006;2022-11-15T10:20:20;3.40;;;1.92;;
21905;SDS011;11117;48.644;9.006;2022-11-15T10:22:50;9.30;;;2.45;;
21905;SDS011;11117;48.644;9.006;2022-11-15T10:25:19;6.28;;;2.40;;
21905;SDS011;11117;48.644;9.006;2022-11-15T10:28:31;4.78;;;2.00;;
21905;SDS011;11117;48.644;9.006;2022-11-15T10:30:42;5.68;;;1.70;;
21905;SDS011;11117;48.644;9.006;2022-11-15T10:38:33;2.08;;;1.60;;
21905;SDS011;11117;48.644;9.006;2022-11-15T10:41:15;5.95;;;1.90;;
21905;SDS011;11117;48.644;9.006;2022-11-15T10:43:43;4.25;;;2.22;;
21905;SDS011;11117;48.644;9.006;2022-11-15T10:46:21;4.53;;;1.90;;
21905;SDS011;11117;48.644;9.006;2022-11-15T10:48:48;4.97;;;1.70;;
21905;SDS011;11117;48.644;9.006;2022-11-15T10:51:20;4.43;;;1.80;;
21905;SDS011;11117;48.644;9.006;2022-11-15T10:53:52;3.33;;;1.50;;
21905;SDS011;11117;48.644;9.006;2022-11-15T10:56:17;5.47;;;1.90;;
21905;SDS011;11117;48.644;9.006;2022-11-15T10:58:54;4.10;;;1.83;;
21905;SDS011;11117;48.644;9.006;2022-11-15T11:01:22;4.20;;;1.95;;
21905;SDS011;11117;48.644;9.006;2022-11-15T11:06:49;2.60;;;1.52;;
21905;SDS011;11117;48.644;9.006;2022-11-15T11:09:21;4.15;;;2.10;;
21905;SDS011;11117;48.644;9.006;2022-11-15T11:11:53;3.53;;;1.67;;
21905;SDS011;11117;48.644;9.006;2022-11-15T11:22:24;4.97;;;1.63;;
21905;SDS011;11117;48.644;9.006;2022-11-15T11:27:27;3.30;;;1.90;;
21905;SDS011;11117;48.644;9.006;2022-11-15T11:35:22;8.38;;;3.35;;
21905;SDS011;11117;48.644;9.006;2022-11-15T11:37:50;7.72;;;2.83;;
21905;SDS011;11117;48.644;9.006;2022-11-15T11:48:26;2.80;;;1.80;;
21905;SDS011;11117;48.644;9.006;2022-11-15T11:51:15;5.13;;;1.90;;
21905;SDS011;11117;48.644;9.006;2022-11-15T11:56:59;3.80;;;1.98;;
21905;SDS011;11117;48.644;9.006;2022-11-15T12:02:07;3.38;;;1.95;;
21905;SDS011;11117;48.644;9.006;2022-11-15T12:04:40;4.93;;;1.70;;
21905;SDS011;11117;48.644;9.006;2022-11-15T12:07:27;5.32;;;1.67;;
21905;SDS011;11117;48.644;9.006;2022-11-15T12:10:15;5.05;;;2.28;;
21905;SDS011;11117;48.644;9.006;2022-11-15T12:17:49;3.70;;;1.95;;
21905;SDS011;11117;48.644;9.006;2022-11-15T12:20:19;2.20;;;1.70;;
21905;SDS011;11117;48.644;9.006;2022-11-15T12:25:57;7.20;;;1.80;;
21905;SDS011;11117;48.644;9.006;2022-11-15T12:31:09;3.40;;;2.17;;
21905;SDS011;11117;48.644;9.006;2022-11-15T12:33:41;3.75;;;1.58;;
21905;SDS011;11117;48.644;9.006;2022-11-15T12:41:24;2.28;;;1.52;;
21905;SDS011;11117;48.644;9.006;2022-11-15T12:44:01;3.58;;;1.83;;
21905;SDS011;11117;48.644;9.006;2022-11-15T12:49:00;3.80;;;1.90;;
21905;SDS011;11117;48.644;9.006;2022-11-15T13:08:06;2.92;;;1.52;;
21905;SDS011;11117;48.644;9.006;2022-11-15T13:10:33;4.25;;;1.80;;
21905;SDS011;11117;48.644;9.006;2022-11-15T13:13:02;3.33;;;1.70;;
21905;SDS011;11117;48.644;9.006;2022-11-15T13:17:55;2.17;;;1.65;;
21905;SDS011;11117;48.644;9.006;2022-11-15T13:20:23;4.50;;;2.00;;
21905;SDS011;11117;48.644;9.006;2022-11-15T13:22:58;11.07;;;2.20;;
21905;SDS011;11117;48.644;9.006;2022-11-15T13:27:58;3.10;;;1.77;;
21905;SDS011;11117;48.644;9.006;2022-11-15T13:30:27;5.88;;;1.52;;
21905;SDS011;11117;48.644;9.006;2022-11-15T13:32:58;4.07;;;1.70;;
21905;SDS011;11117;48.644;9.006;2022-11-15T13:35:32;3.67;;;1.70;;
21905;SDS011;11117;48.644;9.006;2022-11-15T13:38:03;7.75;;;2.10;;
21905;SDS011;11117;48.644;9.006;2022-11-15T13:40:34;4.35;;;2.63;;
21905;SDS011;11117;48.644;9.006;2022-11-15T13:48:41;4.97;;;2.27;;
21905;SDS011;11117;48.644;9.006;2022-11-15T13:51:09;10.00;;;4.33;;
21905;SDS011;11117;48.644;9.006;2022-11-15T13:54:05;5.87;;;3.13;;
21905;SDS011;11117;48.644;9.006;2022-11-15T13:59:49;13.23;;;6.63;;
21905;SDS011;11117;48.644;9.006;2022-11-15T14:02:20;20.77;;;11.13;;
21905;SDS011;11117;48.644;9.006;2022-11-15T14:04:55;12.95;;;6.97;;
21905;SDS011;11117;48.644;9.006;2022-11-15T14:07:25;15.55;;;8.90;;
21905;SDS011;11117;48.644;9.006;2022-11-15T14:09:52;6.13;;;4.10;;
21905;SDS011;11117;48.644;9.006;2022-11-15T14:15:19;4.93;;;3.10;;
21905;SDS011;11117;48.644;9.006;2022-11-15T14:17:56;8.05;;;3.67;;
21905;SDS011;11117;48.644;9.006;2022-11-15T14:22:55;8.67;;;4.53;;
21905;SDS011;11117;48.644;9.006;2022-11-15T14:25:29;10.02;;;4.80;;
21905;SDS011;11117;48.644;9.006;2022-11-15T14:31:00;12.70;;;6.77;;
21905;SDS011;11117;48.644;9.006;2022-11-15T14:36:11;10.23;;;5.80;;
21905;SDS011;11117;48.644;9.006;2022-11-15T14:38:39;12.90;;;5.47;;
21905;SDS011;11117;48.644;9.006;2022-11-15T14:41:05;10.57;;;5.23;;
21905;SDS011;11117;48.644;9.006;2022-11-15T14:43:35;9.53;;;5.77;;
21905;SDS011;11117;48.644;9.006;2022-11-15T14:46:00;9.57;;;5.77;;
21905;SDS011;11117;48.644;9.006;2022-11-15T14:48:26;10.77;;;5.63;;
21905;SDS011;11117;48.644;9.006;2022-11-15T14:50:51;9.98;;;5.53;;
21905;SDS011;11117;48.644;9.006;2022-11-15T14:53:17;10.30;;;5.60;;
21905;SDS011;11117;48.644;9.006;2022-11-15T14:55:43;7.97;;;4.10;;
21905;SDS011;11117;48.644;9.006;2022-11-15T14:58:09;5.43;;;3.70;;
21905;SDS011;11117;48.644;9.006;2022-11-15T15:00:35;10.60;;;5.33;;
21905;SDS011;11117;48.644;9.006;2022-11-15T15:03:02;14.43;;;5.37;;
21905;SDS011;11117;48.644;9.006;2022-11-15T15:05:38;10.97;;;5.50;;
21905;SDS011;11117;48.644;9.006;2022-11-15T15:08:08;11.10;;;5.17;;
21905;SDS011;11117;48.644;9.006;2022-11-15T15:10:44;7.30;;;4.37;;
21905;SDS011;11117;48.644;9.006;2022-11-15T15:13:18;9.13;;;4.53;;
21905;SDS011;11117;48.644;9.006;2022-11-15T15:15:48;8.67;;;4.60;;
21905;SDS011;11117;48.644;9.006;2022-11-15T15:18:16;11.13;;;5.70;;
21905;SDS011;11117;48.644;9.006;2022-11-15T15:20:42;14.67;;;8.20;;
21905;SDS011;11117;48.644;9.006;2022-11-15T15:23:16;13.70;;;9.07;;
21905;SDS011;11117;48.644;9.006;2022-11-15T15:25:43;18.57;;;8.60;;
21905;SDS011;11117;48.644;9.006;2022-11-15T15:28:09;12.27;;;7.83;;
21905;SDS011;11117;48.644;9.006;2022-11-15T15:30:34;12.97;;;7.20;;
21905;SDS011;11117;48.644;9.006;2022-11-15T15:33:00;13.03;;;7.43;;
21905;SDS011;11117;48.644;9.006;2022-11-15T15:35:29;15.40;;;8.23;;
21905;SDS011;11117;48.644;9.006;2022-11-15T15:37:57;13.83;;;8.40;;
21905;SDS011;11117;48.644;9.006;2022-11-15T15:40:23;14.20;;;7.90;;
21905;SDS011;11117;48.644;9.006;2022-11-15T15:42:50;15.53;;;7.70;;
21905;SDS011;11117;48.644;9.006;2022-11-15T15:45:16;12.20;;;7.20;;
21905;SDS011;11117;48.644;9.006;2022-11-15T15:47:43;14.40;;;7.67;;
21905;SDS011;11117;48.644;9.006;2022-11-15T15:50:14;15.37;;;7.57;;
21905;SDS011;11117;48.644;9.006;2022-11-15T15:52:47;15.67;;;7.53;;
21905;SDS011;11117;48.644;9.006;2022-11-15T15:55:14;14.70;;;8.10;;
21905;SDS011;11117;48.644;9.006;2022-11-15T15:57:40;11.77;;;6.83;;
21905;SDS011;11117;48.644;9.006;2022-11-15T16:00:05;14.30;;;7.17;;
21905;SDS011;11117;48.644;9.006;2022-11-15T16:02:31;15.30;;;7.67;;
21905;SDS011;11117;48.644;9.006;2022-11-15T16:04:57;18.77;;;11.80;;
21905;SDS011;11117;48.644;9.006;2022-11-15T16:07:22;13.07;;;6.60;;
21905;SDS011;11117;48.644;9.006;2022-11-15T16:09:48;10.83;;;5.43;;
21905;SDS011;11117;48.644;9.006;2022-11-15T16:12:14;21.20;;;5.23;;
21905;SDS011;11117;48.644;9.006;2022-11-15T16:14:40;8.17;;;5.30;;
21905;SDS011;11117;48.644;9.006;2022-11-15T16:17:05;11.27;;;5.57;;
21905;SDS011;11117;48.644;9.006;2022-11-15T16:19:31;10.93;;;5.33;;
21905;SDS011;11117;48.644;9.006;2022-11-15T16:21:56;10.43;;;5.57;;
21905;SDS011;11117;48.644;9.006;2022-11-15T16:24:25;13.90;;;6.10;;
21905;SDS011;11117;48.644;9.006;2022-11-15T16:26:50;14.03;;;6.97;;
21905;SDS011;11117;48.644;9.006;2022-11-15T16:29:16;13.70;;;7.10;;
21905;SDS011;11117;48.644;9.006;2022-11-15T16:31:42;16.93;;;7.97;;
21905;SDS011;11117;48.644;9.006;2022-11-15T16:34:07;13.87;;;7.93;;
21905;SDS011;11117;48.644;9.006;2022-11-15T16:36:33;12.93;;;7.90;;
21905;SDS011;11117;48.644;9.006;2022-11-15T16:39:00;16.90;;;7.57;;
21905;SDS011;11117;48.644;9.006;2022-11-15T16:41:26;15.03;;;6.67;;
21905;SDS011;11117;48.644;9.006;2022-11-15T16:43:51;12.87;;;7.37;;
21905;SDS011;11117;48.644;9.006;2022-11-15T16:46:21;15.07;;;8.57;;
21905;SDS011;11117;48.644;9.006;2022-11-15T16:48:48;20.57;;;8.63;;
21905;SDS011;11117;48.644;9.006;2022-11-15T16:51:14;18.87;;;10.63;;
21905;SDS011;11117;48.644;9.006;2022-11-15T16:53:41;23.73;;;14.77;;
21905;SDS011;11117;48.644;9.006;2022-11-15T16:56:49;22.70;;;14.57;;
21905;SDS011;11117;48.644;9.006;2022-11-15T16:58:56;27.87;;;18.07;;
21905;SDS011;11117;48.644;9.006;2022-11-15T17:01:24;37.33;;;20.80;;
21905;SDS011;11117;48.644;9.006;2022-11-15T17:03:51;31.43;;;19.47;;
21905;SDS011;11117;48.644;9.006;2022-11-15T17:06:17;28.57;;;16.60;;
21905;SDS011;11117;48.644;9.006;2022-11-15T17:08:43;27.13;;;15.13;;
21905;SDS011;11117;48.644;9.006;2022-11-15T17:11:10;23.77;;;11.57;;
21905;SDS011;11117;48.644;9.006;2022-11-15T17:13:39;22.13;;;12.17;;
21905;SDS011;11117;48.644;9.006;2022-11-15T17:16:06;19.33;;;11.43;;